createdAt,value
2023-02-11T00:01:11.256Z,4.82
2023-02-11T00:03:39.089Z,5.03
2023-02-11T00:06:11.601Z,4.47
2023-02-11T00:08:39.221Z,4.22
2023-02-11T00:11:06.422Z,4.53
2023-02-11T00:13:34.285Z,4.70
2023-02-11T00:16:07.013Z,4.07
2023-02-11T00:18:33.962Z,4.75
2023-02-11T00:21:01.125Z,4.50
2023-02-11T00:23:28.257Z,4.77
2023-02-11T00:25:55.259Z,4.60
2023-02-11T00:28:22.606Z,4.90
2023-02-11T00:30:56.023Z,4.78
2023-02-11T00:33:23.335Z,4.38
2023-02-11T00:35:51.255Z,4.37
2023-02-11T00:38:18.483Z,4.50
2023-02-11T00:40:45.560Z,5.03
2023-02-11T00:43:12.356Z,4.57
2023-02-11T00:45:39.279Z,4.85
2023-02-11T00:48:06.448Z,4.50
2023-02-11T00:50:33.578Z,5.30
2023-02-11T00:53:00.523Z,4.68
2023-02-11T00:55:27.896Z,4.65
2023-02-11T00:57:54.949Z,4.78
2023-02-11T01:00:22.490Z,4.70
2023-02-11T01:02:49.758Z,4.80
2023-02-11T01:05:16.654Z,4.60
2023-02-11T01:07:43.747Z,4.65
2023-02-11T01:10:11.506Z,4.28
2023-02-11T01:12:39.376Z,5.10
2023-02-11T01:15:08.591Z,4.72
2023-02-11T01:17:36.142Z,5.70
2023-02-11T01:20:05.986Z,5.35
2023-02-11T01:22:34.832Z,5.30
2023-02-11T01:25:01.827Z,4.77
2023-02-11T01:27:28.878Z,4.90
2023-02-11T01:29:55.947Z,5.45
2023-02-11T01:32:23.237Z,5.68
2023-02-11T01:34:50.650Z,4.93
2023-02-11T01:37:17.720Z,4.90
2023-02-11T01:39:44.806Z,5.60
2023-02-11T01:42:21.621Z,5.60
2023-02-11T01:44:53.831Z,6.50
2023-02-11T01:47:22.414Z,6.05
2023-02-11T01:49:53.050Z,5.67
2023-02-11T01:52:32.366Z,5.25
2023-02-11T01:55:31.484Z,5.65
2023-02-11T01:58:02.721Z,5.40
2023-02-11T06:32:44.642Z,14.98
2023-02-11T06:35:12.830Z,16.73
2023-02-11T06:37:40.167Z,17.23
2023-02-11T06:40:07.626Z,17.15
2023-02-11T06:42:36.134Z,17.90
2023-02-11T06:45:06.069Z,18.80
2023-02-11T06:47:32.968Z,18.77
2023-02-11T06:49:59.704Z,18.03
2023-02-11T06:52:26.372Z,18.35
2023-02-11T06:54:52.919Z,17.33
2023-02-11T06:57:19.631Z,17.83
2023-02-11T06:59:46.232Z,18.60
2023-02-11T07:02:12.871Z,17.47
2023-02-11T07:04:39.486Z,17.90
2023-02-11T07:07:06.079Z,17.65
2023-02-11T07:09:32.701Z,17.75
2023-02-11T07:11:59.522Z,16.50
2023-02-11T07:14:26.067Z,18.87
2023-02-11T07:16:52.823Z,18.45
2023-02-11T07:19:19.419Z,18.00
2023-02-11T07:21:45.987Z,16.70
2023-02-11T07:24:13.273Z,16.55
2023-02-11T07:26:40.108Z,17.13
2023-02-11T07:29:06.688Z,16.25
2023-02-11T07:31:33.430Z,16.40
2023-02-11T07:34:01.584Z,16.30
2023-02-11T07:36:29.766Z,17.35
2023-02-11T07:38:56.564Z,16.20
2023-02-11T07:41:24.578Z,17.02
2023-02-11T07:43:51.606Z,16.05
2023-02-11T07:46:23.875Z,16.52
2023-02-11T07:48:50.860Z,17.65
2023-02-11T07:51:23.061Z,16.43
2023-02-11T07:53:50.003Z,17.55
2023-02-11T07:56:17.970Z,17.25
2023-02-11T07:58:45.473Z,18.33
2023-02-11T08:01:15.275Z,18.08
2023-02-11T08:03:42.873Z,17.70
2023-02-11T08:06:14.798Z,17.98
2023-02-11T08:08:41.884Z,17.30
2023-02-11T08:11:14.171Z,16.15
2023-02-11T08:13:41.365Z,16.73
2023-02-11T08:16:10.287Z,17.20
2023-02-11T08:18:37.080Z,17.25
2023-02-11T08:21:05.814Z,17.65
2023-02-11T08:23:32.371Z,16.58
2023-02-11T08:26:08.239Z,16.80
2023-02-11T08:28:39.767Z,16.87
2023-02-11T08:31:11.288Z,16.27
2023-02-11T08:33:40.622Z,17.52
2023-02-11T08:36:12.762Z,16.63
2023-02-11T08:38:39.570Z,15.80
2023-02-11T08:41:06.708Z,16.27
2023-02-11T08:43:34.017Z,17.52
2023-02-11T08:46:02.105Z,16.42
2023-02-11T08:48:30.008Z,17.98
2023-02-11T08:50:57.105Z,17.00
2023-02-11T08:53:23.838Z,18.20
2023-02-11T08:55:54.926Z,16.98
2023-02-11T08:58:22.742Z,17.08
2023-02-11T09:00:50.507Z,16.67
2023-02-11T09:03:17.815Z,15.98
2023-02-11T09:05:46.154Z,16.53
2023-02-11T09:08:13.636Z,17.38
2023-02-11T09:10:40.451Z,15.88
2023-02-11T09:13:07.383Z,16.65
2023-02-11T09:15:34.393Z,17.83
2023-02-11T09:18:01.176Z,17.23
2023-02-11T09:20:27.870Z,17.52
2023-02-11T09:22:56.781Z,16.73
2023-02-11T09:25:23.395Z,16.48
2023-02-11T09:27:52.069Z,15.82
2023-02-11T09:30:18.727Z,17.30
2023-02-11T09:32:45.351Z,15.52
2023-02-11T09:35:11.955Z,15.13
2023-02-11T09:37:38.495Z,15.70
2023-02-11T09:40:05.637Z,16.80
2023-02-11T09:42:35.136Z,17.13
2023-02-11T09:45:03.092Z,17.13
2023-02-11T09:47:35.674Z,15.85
2023-02-11T09:50:15.662Z,16.25
2023-02-11T09:52:42.172Z,16.02
2023-02-11T09:55:25.518Z,15.87
2023-02-11T09:57:52.339Z,15.40
2023-02-11T10:00:29.241Z,16.58
2023-02-11T10:03:07.075Z,16.13
2023-02-11T10:06:07.128Z,15.63
2023-02-11T10:08:45.794Z,15.53
2023-02-11T10:11:31.308Z,15.40
2023-02-11T10:14:28.650Z,15.90
2023-02-11T10:17:17.311Z,15.40
2023-02-11T10:20:08.786Z,15.43
2023-02-11T10:22:45.452Z,15.00
2023-02-11T10:25:21.326Z,14.73
2023-02-11T10:27:48.658Z,15.40
2023-02-11T10:30:28.341Z,15.45
2023-02-11T10:33:02.898Z,15.45
2023-02-11T10:35:29.449Z,15.43
2023-02-11T10:37:56.478Z,16.08
2023-02-11T10:40:26.042Z,15.50
2023-02-11T10:42:55.946Z,15.15
2023-02-11T10:45:31.147Z,14.65
2023-02-11T10:47:59.524Z,14.03
2023-02-11T10:50:29.193Z,15.15
2023-02-11T10:53:23.808Z,14.90
2023-02-11T10:55:55.766Z,14.32
2023-02-11T10:58:29.474Z,13.95
2023-02-11T11:00:58.323Z,14.30
2023-02-11T11:03:27.312Z,14.80
2023-02-11T11:06:01.061Z,15.00
2023-02-11T11:08:53.872Z,14.82
2023-02-11T11:11:23.104Z,14.27
2023-02-11T11:13:52.317Z,13.90
2023-02-11T11:16:34.847Z,14.15
2023-02-11T11:19:07.171Z,14.50
2023-02-11T11:21:37.057Z,14.15
2023-02-11T11:24:04.122Z,14.52
2023-02-11T11:27:04.201Z,14.90
2023-02-11T11:29:43.077Z,13.60
2023-02-11T11:32:20.572Z,13.43
2023-02-11T11:34:54.041Z,14.32
2023-02-11T11:37:28.821Z,14.77
2023-02-11T11:40:01.100Z,16.57
2023-02-11T11:42:31.055Z,13.50
2023-02-11T11:45:19.641Z,14.52
2023-02-11T11:47:53.006Z,14.48
2023-02-11T11:50:45.289Z,15.18
2023-02-11T11:53:29.187Z,14.80
2023-02-11T11:56:07.330Z,15.43
2023-02-11T11:58:34.065Z,14.55
2023-02-11T12:01:15.252Z,13.95
2023-02-11T12:04:03.060Z,14.35
2023-02-11T12:06:41.157Z,14.13
2023-02-11T12:09:34.049Z,13.80
2023-02-11T12:12:19.572Z,12.88
2023-02-11T12:15:23.930Z,13.90
2023-02-11T12:18:25.462Z,14.50
2023-02-11T12:21:27.010Z,13.60
2023-02-11T12:24:19.321Z,13.18
2023-02-11T12:26:57.978Z,13.00
2023-02-11T12:29:33.414Z,13.50
2023-02-11T12:32:03.022Z,13.52
2023-02-11T12:35:04.262Z,13.43
2023-02-11T12:37:41.383Z,12.73
2023-02-11T12:40:51.511Z,13.20
2023-02-11T12:43:24.425Z,12.90
2023-02-11T12:46:12.485Z,12.80
2023-02-11T12:49:00.045Z,13.80
2023-02-11T12:51:48.281Z,13.45
2023-02-11T12:54:25.825Z,13.77
2023-02-11T12:57:13.439Z,14.05
2023-02-11T13:00:06.874Z,12.30
2023-02-11T13:02:54.506Z,13.30
2023-02-11T13:05:34.157Z,13.75
2023-02-11T13:08:17.919Z,13.48
2023-02-11T13:10:48.794Z,13.13
2023-02-11T13:13:22.403Z,13.25
2023-02-11T13:16:09.841Z,13.76
2023-02-11T13:18:49.638Z,13.15
2023-02-11T13:21:16.471Z,13.35
2023-02-11T13:23:51.943Z,12.52
2023-02-11T13:26:31.833Z,12.95
2023-02-11T13:29:10.108Z,12.30
2023-02-11T13:31:36.824Z,14.15
2023-02-11T13:34:04.038Z,13.00
2023-02-11T13:36:33.373Z,12.73
2023-02-11T13:39:05.839Z,12.43
2023-02-11T13:41:37.449Z,12.50
2023-02-11T13:44:26.627Z,12.35
2023-02-11T13:46:59.167Z,13.43
2023-02-11T13:49:32.393Z,12.48
2023-02-11T13:52:01.928Z,12.98
2023-02-11T13:54:39.082Z,12.23
2023-02-11T13:57:22.292Z,12.40
2023-02-11T13:59:48.891Z,12.25
2023-02-11T14:02:51.246Z,12.65
2023-02-11T14:05:47.338Z,12.07
2023-02-11T14:08:35.319Z,12.83
2023-02-11T14:11:14.750Z,13.07
2023-02-11T14:13:47.046Z,12.77
2023-02-11T14:16:35.617Z,12.43
2023-02-11T14:19:04.483Z,12.75
2023-02-11T14:21:35.866Z,13.23
2023-02-11T14:24:02.539Z,11.98
2023-02-11T14:26:53.662Z,12.68
2023-02-11T14:29:30.677Z,12.25
2023-02-11T14:32:06.286Z,12.48
2023-02-11T14:34:39.064Z,10.80
2023-02-11T14:37:37.795Z,10.00
2023-02-11T14:40:29.035Z,9.82
2023-02-11T14:42:58.041Z,10.80
2023-02-11T14:45:28.730Z,11.80
2023-02-11T14:48:15.923Z,10.57
2023-02-11T14:50:50.248Z,9.68
2023-02-11T14:53:24.134Z,9.02
2023-02-11T14:55:53.357Z,9.00
2023-02-11T14:58:23.295Z,7.40
2023-02-11T15:01:22.337Z,8.23
2023-02-11T15:03:49.933Z,8.77
2023-02-11T15:06:19.929Z,8.65
2023-02-11T15:09:00.921Z,8.77
2023-02-11T15:11:31.085Z,8.70
2023-02-11T15:14:00.571Z,7.90
2023-02-11T15:16:28.965Z,7.90
2023-02-11T15:19:01.481Z,8.48
2023-02-11T15:21:32.318Z,10.30
2023-02-11T15:24:06.349Z,8.88
2023-02-11T15:26:33.443Z,8.60
2023-02-11T15:29:00.598Z,8.85
2023-02-11T15:31:28.482Z,9.15
2023-02-11T15:33:55.387Z,8.85
2023-02-11T15:36:28.689Z,8.38
2023-02-11T15:39:33.080Z,7.70
2023-02-11T15:42:18.246Z,8.30
2023-02-11T15:44:44.839Z,8.10
2023-02-11T15:47:13.292Z,8.80
2023-02-11T15:49:45.229Z,8.07
2023-02-11T15:52:14.242Z,7.57
2023-02-11T15:54:46.555Z,7.40
2023-02-11T15:57:13.776Z,7.53
2023-02-11T15:59:45.279Z,6.45
2023-02-11T16:02:28.841Z,5.18
2023-02-11T16:04:58.531Z,6.70
2023-02-11T16:07:51.924Z,7.85
2023-02-11T16:10:30.989Z,7.40
2023-02-11T16:13:06.992Z,7.55
2023-02-11T16:15:33.794Z,8.73
2023-02-11T16:18:13.371Z,10.60
2023-02-11T16:20:40.185Z,11.40
2023-02-11T16:23:07.867Z,11.57
2023-02-11T16:25:37.772Z,15.90
2023-02-11T16:28:05.292Z,10.25
2023-02-11T16:30:37.463Z,10.00
2023-02-11T16:33:05.513Z,9.95
2023-02-11T16:35:32.404Z,10.38
2023-02-11T16:37:58.991Z,9.82
2023-02-11T16:40:25.561Z,8.95
2023-02-11T16:42:53.525Z,8.83
2023-02-11T16:45:20.282Z,7.45
2023-02-11T16:47:47.027Z,5.78
2023-02-11T16:50:21.610Z,5.63
2023-02-11T16:52:48.703Z,5.40
2023-02-11T16:55:15.413Z,5.17
2023-02-11T16:57:42.094Z,5.10
2023-02-11T17:00:09.310Z,5.20
2023-02-11T17:02:37.398Z,5.88
2023-02-11T17:05:06.746Z,6.13
2023-02-11T17:07:33.286Z,6.50
2023-02-11T17:10:00.403Z,7.93
2023-02-11T17:12:27.077Z,7.35
2023-02-11T17:14:53.956Z,7.20
2023-02-11T17:17:22.079Z,7.80
2023-02-11T17:19:48.818Z,7.60
2023-02-11T17:22:15.411Z,7.80
2023-02-11T17:24:41.908Z,7.38
2023-02-11T17:27:10.969Z,6.78
2023-02-11T17:29:37.537Z,7.30
2023-02-11T17:32:04.303Z,8.87
2023-02-11T17:34:32.378Z,8.30
2023-02-11T17:37:00.248Z,8.75
2023-02-11T17:39:27.570Z,9.90
2023-02-11T17:41:54.281Z,9.45
2023-02-11T17:44:20.928Z,10.00
2023-02-11T17:46:47.486Z,12.68
2023-02-11T17:49:14.090Z,10.13
2023-02-11T17:51:40.867Z,10.40
2023-02-11T17:54:11.899Z,10.30
2023-02-11T17:56:40.582Z,8.67
2023-02-11T17:59:08.677Z,9.40
2023-02-11T18:01:36.963Z,10.65
2023-02-11T18:04:04.777Z,10.00
2023-02-11T18:06:33.808Z,9.10
2023-02-11T18:09:02.309Z,9.23
2023-02-11T18:11:30.521Z,9.20
2023-02-11T18:14:01.340Z,8.80
2023-02-11T18:16:29.432Z,8.00
2023-02-11T18:18:58.003Z,9.25
2023-02-11T18:21:25.205Z,8.33
2023-02-11T18:23:51.892Z,11.00
2023-02-11T18:26:20.418Z,10.25
2023-02-11T18:28:47.026Z,9.77
2023-02-11T18:31:14.576Z,10.27
2023-02-11T18:33:42.343Z,10.33
2023-02-11T18:36:12.283Z,9.68
2023-02-11T18:38:39.391Z,9.60
2023-02-11T18:41:07.336Z,10.02
2023-02-11T18:43:34.520Z,9.02
2023-02-11T18:46:02.289Z,14.47
2023-02-11T18:48:28.999Z,20.35
2023-02-11T18:50:55.778Z,17.33
2023-02-11T18:53:24.587Z,10.20
2023-02-11T18:55:52.890Z,9.98
2023-02-11T18:58:21.196Z,10.57
2023-02-11T19:00:48.732Z,10.32
2023-02-11T19:03:15.472Z,9.77
2023-02-11T19:05:42.722Z,9.45
2023-02-11T19:08:09.383Z,9.30
2023-02-11T19:10:41.034Z,9.10
2023-02-11T19:13:07.889Z,9.73
2023-02-11T19:15:34.476Z,11.10
2023-02-11T19:18:01.037Z,11.38
2023-02-11T19:20:27.609Z,16.73
2023-02-11T19:22:54.145Z,11.57
2023-02-11T19:25:20.757Z,13.10
2023-02-11T19:27:47.277Z,14.60
2023-02-11T19:30:14.005Z,14.30
2023-02-11T19:32:40.938Z,13.45
2023-02-11T19:35:07.789Z,15.67
2023-02-11T19:37:34.373Z,14.50
2023-02-11T19:40:00.964Z,12.57
2023-02-11T19:42:27.765Z,10.45
2023-02-11T19:44:54.445Z,17.50
2023-02-11T19:47:27.669Z,9.77
2023-02-11T19:49:55.126Z,16.58
2023-02-11T19:52:21.662Z,22.30
2023-02-11T19:54:48.411Z,29.58
2023-02-11T19:57:14.976Z,16.70
2023-02-11T19:59:41.670Z,12.90
2023-02-11T20:02:13.337Z,12.35
2023-02-11T20:04:40.080Z,15.10
2023-02-11T20:07:06.640Z,13.20
2023-02-11T20:09:33.526Z,12.20
2023-02-11T20:12:00.549Z,13.37
2023-02-11T20:14:28.178Z,14.40
2023-02-11T20:16:54.925Z,13.82
2023-02-11T20:19:22.085Z,13.93
2023-02-11T20:22:17.347Z,13.48
2023-02-11T20:25:32.069Z,13.63
2023-02-11T20:31:01.858Z,13.50
2023-02-11T20:33:30.031Z,12.93
2023-02-11T20:36:05.060Z,12.30
2023-02-11T20:38:31.919Z,13.13
2023-02-11T20:45:11.560Z,13.15
2023-02-11T20:47:38.360Z,12.63
2023-02-11T20:50:05.809Z,12.35
2023-02-11T20:52:32.936Z,11.33
2023-02-11T20:55:01.592Z,11.55
2023-02-11T20:57:28.694Z,11.68
2023-02-11T20:59:55.341Z,13.95
2023-02-11T21:02:24.598Z,12.15
2023-02-11T21:04:51.351Z,11.73
2023-02-11T21:07:18.334Z,12.10
2023-02-11T21:09:44.826Z,11.45
2023-02-11T21:12:11.426Z,11.23
2023-02-11T21:14:38.021Z,11.13
2023-02-11T21:17:04.577Z,10.33
2023-02-11T21:19:31.085Z,10.20
2023-02-11T21:22:00.577Z,10.77
2023-02-11T21:24:27.183Z,11.65
2023-02-11T21:26:54.704Z,10.85
2023-02-11T21:29:21.228Z,11.43
2023-02-11T21:31:48.381Z,10.82
2023-02-11T21:34:16.210Z,11.60
2023-02-11T21:36:43.055Z,10.70
2023-02-11T21:39:09.744Z,9.90
2023-02-11T21:41:36.338Z,10.67
2023-02-11T21:44:04.051Z,10.30
2023-02-11T21:46:31.552Z,10.30
2023-02-11T21:48:58.271Z,9.93
2023-02-11T21:51:25.921Z,9.88
2023-02-11T21:53:54.976Z,9.80
2023-02-11T21:56:22.522Z,9.48
2023-02-11T21:58:53.011Z,10.18
2023-02-11T22:01:28.489Z,10.00
2023-02-11T22:03:55.655Z,10.85
2023-02-11T22:06:26.237Z,10.73
2023-02-11T22:08:54.414Z,10.60
2023-02-11T22:11:20.978Z,10.63
2023-02-11T22:13:47.570Z,10.57
2023-02-11T22:16:16.684Z,10.52
2023-02-11T22:18:46.361Z,10.20
2023-02-11T22:21:15.875Z,10.30
2023-02-11T22:23:42.580Z,10.80
2023-02-11T22:26:12.977Z,10.00
2023-02-11T22:28:40.864Z,10.50
2023-02-11T22:31:12.377Z,12.17
2023-02-11T22:33:39.899Z,10.63
2023-02-11T22:36:12.291Z,10.65
2023-02-11T22:38:39.015Z,11.00
2023-02-11T22:41:07.931Z,10.70
2023-02-11T22:43:34.895Z,9.60
2023-02-11T22:46:03.339Z,10.85
2023-02-11T22:48:30.064Z,10.40
2023-02-11T22:51:03.448Z,9.85
2023-02-11T22:53:30.362Z,10.63
2023-02-11T22:55:57.484Z,10.23
2023-02-11T22:58:24.898Z,10.63
2023-02-11T23:00:51.416Z,10.20
2023-02-11T23:03:18.080Z,10.05
2023-02-11T23:05:44.606Z,12.00
2023-02-11T23:08:11.866Z,10.50
2023-02-11T23:10:39.572Z,11.20
2023-02-11T23:13:07.917Z,11.05
2023-02-11T23:15:34.542Z,11.10
2023-02-11T23:18:01.126Z,10.45
2023-02-11T23:20:27.774Z,10.90
2023-02-11T23:22:54.391Z,11.45
2023-02-11T23:25:20.933Z,11.40
2023-02-11T23:27:47.545Z,11.40
2023-02-11T23:30:14.487Z,11.90
2023-02-11T23:32:41.043Z,12.07
2023-02-11T23:35:07.782Z,11.90
2023-02-11T23:37:35.930Z,12.23
2023-02-11T23:40:02.495Z,11.70
2023-02-11T23:42:29.673Z,12.10
2023-02-11T23:44:56.218Z,11.20
2023-02-11T23:47:22.840Z,10.90
2023-02-11T23:49:49.419Z,11.55
2023-02-11T23:52:16.075Z,11.13
2023-02-11T23:54:43.376Z,11.30
2023-02-11T23:57:10.002Z,10.87
2023-02-11T23:59:36.562Z,11.32
